Time;durP1;ratioP1;P1;durP2;ratioP2;P2;SDS_P1;SDS_P2;PMS_P1;PMS_P2;Temp;Humidity;BMP_temperature;BMP_pressure;BME280_temperature;BME280_humidity;BME280_pressure;Samples;Min_cycle;Max_cycle;Signal;HPM_P1;HPM_P2
2023/02/02 00:01:34;;;;;;;8.80;6.30;;;;;;;2.72;100.00;98667.51;109275;1257;58142;-76
2023/02/02 00:04:02;;;;;;;8.90;6.90;;;;;;;2.75;100.00;98671.74;109271;1256;60573;-79
2023/02/02 00:06:31;;;;;;;10.60;7.00;;;;;;;2.75;100.00;98676.52;109332;1255;73737;-74
2023/02/02 00:09:00;;;;;;;12.10;6.90;;;;;;;2.70;100.00;98675.86;108468;1256;1003011;-72
2023/02/02 00:11:29;;;;;;;12.80;7.40;;;;;;;2.62;100.00;98675.95;109309;1256;72887;-81
2023/02/02 00:13:57;;;;;;;8.00;6.90;;;;;;;2.55;100.00;98673.39;109135;1256;59838;-77
2023/02/02 00:16:26;;;;;;;14.50;7.80;;;;;;;2.48;100.00;98672.02;109118;1256;60043;-70
2023/02/02 00:18:58;;;;;;;14.40;7.00;;;;;;;2.46;100.00;98672.39;109266;1256;73867;-71
2023/02/02 00:21:26;;;;;;;13.20;7.10;;;;;;;2.47;100.00;98668.30;109268;1256;67146;-72
2023/02/02 00:23:58;;;;;;;12.90;9.00;;;;;;;2.48;100.00;98666.39;109278;1257;73128;-71
2023/02/02 00:26:26;;;;;;;15.50;8.40;;;;;;;2.50;100.00;98668.36;109265;1256;58565;-72
2023/02/02 00:28:55;;;;;;;12.90;7.10;;;;;;;2.53;100.00;98667.59;109263;1256;60287;-72
2023/02/02 00:31:23;;;;;;;20.80;10.30;;;;;;;2.54;100.00;98664.27;109285;1256;72882;-71
2023/02/02 00:33:51;;;;;;;14.50;8.40;;;;;;;2.54;100.00;98668.20;109275;1257;68176;-70
2023/02/02 00:36:19;;;;;;;19.30;7.40;;;;;;;2.55;100.00;98665.79;109218;1257;72954;-71
2023/02/02 00:38:48;;;;;;;12.30;8.30;;;;;;;2.57;100.00;98665.36;109197;1257;61172;-72
2023/02/02 00:41:16;;;;;;;10.10;8.60;;;;;;;2.59;100.00;98663.31;109157;1257;61587;-76
2023/02/02 00:45:14;;;;;;;13.10;7.30;;;;;;;2.65;100.00;98660.90;109255;1256;74265;-77
2023/02/02 00:46:33;;;;;;;12.70;8.90;;;;;;;2.69;100.00;98654.17;109273;1257;67766;-76
2023/02/02 00:49:01;;;;;;;14.60;8.60;;;;;;;2.72;100.00;98651.54;109269;1257;72148;-79
2023/02/02 00:51:33;;;;;;;14.60;8.90;;;;;;;2.73;100.00;98650.09;109219;1257;58740;-80
2023/02/02 00:54:02;;;;;;;19.10;8.40;;;;;;;2.74;100.00;98651.39;109186;1257;58086;-80
2023/02/02 00:56:30;;;;;;;17.80;9.90;;;;;;;2.72;100.00;98653.83;109127;1257;74731;-79
2023/02/02 00:58:58;;;;;;;15.10;8.70;;;;;;;2.71;100.00;98650.65;109222;1257;66119;-79
2023/02/02 01:01:27;;;;;;;14.20;7.80;;;;;;;2.71;100.00;98649.34;109231;1256;73636;-79
2023/02/02 01:03:55;;;;;;;14.80;9.10;;;;;;;2.75;100.00;98647.38;109111;1256;61404;-77
2023/02/02 01:06:24;;;;;;;15.80;9.60;;;;;;;2.80;100.00;98648.89;109205;1257;58484;-76
2023/02/02 01:08:52;;;;;;;13.70;9.50;;;;;;;2.82;100.00;98650.17;109222;1257;74317;-77
2023/02/02 01:11:20;;;;;;;35.40;16.30;;;;;;;2.84;100.00;98650.80;109208;1260;68155;-77
2023/02/02 01:13:48;;;;;;;14.80;12.90;;;;;;;2.86;100.00;98657.27;109226;1257;73858;-77
2023/02/02 01:16:17;;;;;;;19.60;10.80;;;;;;;2.85;100.00;98659.85;109229;1257;59759;-78
2023/02/02 01:18:45;;;;;;;24.30;11.50;;;;;;;2.83;100.00;98655.39;109234;1257;59593;-76
2023/02/02 01:21:14;;;;;;;21.40;9.90;;;;;;;2.82;100.00;98653.58;109175;1257;73433;-72
2023/02/02 01:23:43;;;;;;;16.50;10.00;;;;;;;2.82;100.00;98654.52;109211;1257;67780;-69
2023/02/02 01:26:12;;;;;;;14.00;9.60;;;;;;;2.81;100.00;98652.27;109198;1257;71877;-71
2023/02/02 01:28:40;;;;;;;14.50;9.50;;;;;;;2.83;100.00;98656.61;109193;1256;58425;-70
2023/02/02 01:31:10;;;;;;;15.20;10.60;;;;;;;2.83;100.00;98655.34;109143;1257;58286;-71
2023/02/02 01:33:41;;;;;;;16.20;9.90;;;;;;;2.84;100.00;98656.64;109156;1257;71603;-71
2023/02/02 01:36:13;;;;;;;15.20;9.20;;;;;;;2.84;100.00;98656.31;109153;1257;66579;-72
2023/02/02 01:38:42;;;;;;;19.90;10.60;;;;;;;2.80;100.00;98652.04;109126;1257;71557;-72
2023/02/02 01:41:17;;;;;;;14.50;9.70;;;;;;;2.77;100.00;98651.58;109111;1257;62332;-71
2023/02/02 01:43:46;;;;;;;21.00;10.50;;;;;;;2.77;100.00;98652.79;109120;1257;60064;-77
2023/02/02 01:46:19;;;;;;;16.20;8.70;;;;;;;2.76;100.00;98651.44;109185;1257;73772;-80
2023/02/02 01:48:57;;;;;;;20.00;9.70;;;;;;;2.77;100.00;98650.52;109130;1257;67756;-79
2023/02/02 01:51:35;;;;;;;16.70;10.50;;;;;;;2.77;100.00;98651.41;109153;1257;71805;-78
2023/02/02 01:54:05;;;;;;;12.90;9.10;;;;;;;2.77;100.00;98654.08;109132;1257;59597;-72
2023/02/02 01:56:37;;;;;;;19.30;11.10;;;;;;;2.74;100.00;98652.36;109139;1257;59719;-76
2023/02/02 01:59:05;;;;;;;18.70;12.20;;;;;;;2.71;100.00;98653.63;109049;1257;73295;-78
2023/02/02 02:01:34;;;;;;;20.70;12.40;;;;;;;2.72;100.00;98650.80;109094;1257;68047;-80
2023/02/02 02:04:03;;;;;;;14.20;11.40;;;;;;;2.77;100.00;98648.97;109191;1257;72188;-79
2023/02/02 02:06:31;;;;;;;16.20;10.70;;;;;;;2.82;100.00;98656.17;109123;1257;60665;-81
2023/02/02 02:09:03;;;;;;;14.00;10.60;;;;;;;2.86;100.00;98655.63;109175;1257;59289;-82
2023/02/02 02:11:32;;;;;;;17.00;11.40;;;;;;;2.88;100.00;98657.23;109115;1257;73422;-78
2023/02/02 02:17:24;;;;;;;19.20;10.60;;;;;;;2.90;100.00;98655.78;109174;1257;70995;-78
2023/02/02 02:26:32;;;;;;;14.80;10.40;;;;;;;2.86;100.00;98660.73;108588;1265;59327;-78
2023/02/02 02:27:45;;;;;;;19.90;10.50;;;;;;;2.89;100.00;98661.46;108878;1257;71461;-74
2023/02/02 02:30:44;;;;;;;13.70;9.80;;;;;;;2.94;100.00;98658.33;109084;1257;66682;-76
2023/02/02 02:35:40;;;;;;;13.90;8.70;;;;;;;3.01;100.00;98656.08;103111;1292;599730;-76
2023/02/02 02:38:15;;;;;;;14.30;10.50;;;;;;;2.94;100.00;98657.02;105360;1267;59646;-76
2023/02/02 02:40:56;;;;;;;21.20;12.80;;;;;;;2.87;100.00;98651.36;105205;1268;60249;-78
2023/02/02 02:43:29;;;;;;;14.90;9.30;;;;;;;2.86;100.00;98655.75;105231;1269;73950;-77
2023/02/02 02:45:58;;;;;;;15.20;11.10;;;;;;;2.83;100.00;98657.80;105155;1267;68674;-75
2023/02/02 02:48:28;;;;;;;23.70;12.50;;;;;;;2.85;100.00;98658.54;104764;1267;626895;-75
2023/02/02 02:51:28;;;;;;;17.40;11.00;;;;;;;2.90;100.00;98660.92;105160;1266;59656;-76
2023/02/02 02:53:56;;;;;;;18.40;11.10;;;;;;;2.93;100.00;98664.56;105368;1269;59544;-76
2023/02/02 02:56:31;;;;;;;22.20;12.40;;;;;;;2.93;100.00;98661.65;105146;1265;70549;-77
2023/02/02 02:59:07;;;;;;;19.80;10.20;;;;;;;2.93;100.00;98665.16;105138;1265;68256;-78
2023/02/02 03:01:39;;;;;;;23.80;12.00;;;;;;;2.91;100.00;98666.97;105110;1269;72528;-76
2023/02/02 03:04:15;;;;;;;25.50;13.80;;;;;;;2.88;100.00;98670.45;105273;1264;60346;-75
2023/02/02 03:06:49;;;;;;;17.80;10.70;;;;;;;2.88;100.00;98668.16;105857;1253;61069;-76
2023/02/02 03:09:20;;;;;;;16.40;11.20;;;;;;;2.91;100.00;98670.02;106068;1254;71812;-75
2023/02/02 03:11:48;;;;;;;22.80;10.60;;;;;;;2.95;100.00;98669.80;106070;1257;68110;-74
2023/02/02 03:14:17;;;;;;;14.20;10.20;;;;;;;3.00;100.00;98669.13;105815;1259;72171;-76
2023/02/02 03:16:45;;;;;;;14.70;10.30;;;;;;;3.03;100.00;98677.07;105877;1254;60290;-74
2023/02/02 03:19:13;;;;;;;21.50;12.60;;;;;;;3.03;100.00;98677.77;105870;1254;61050;-74
2023/02/02 03:21:42;;;;;;;18.40;11.00;;;;;;;2.99;100.00;98676.48;105875;1254;74930;-75
2023/02/02 03:24:10;;;;;;;22.90;14.10;;;;;;;2.96;100.00;98674.29;105976;1257;66594;-75
2023/02/02 03:26:39;;;;;;;18.40;12.50;;;;;;;2.96;100.00;98676.98;105950;1257;73617;-75
2023/02/02 03:29:07;;;;;;;18.40;11.50;;;;;;;2.93;100.00;98678.86;105895;1254;59672;-76
2023/02/02 03:31:36;;;;;;;23.50;13.30;;;;;;;2.91;100.00;98679.66;109295;1254;59627;-74
2023/02/02 03:34:04;;;;;;;20.70;12.40;;;;;;;2.93;100.00;98679.52;109455;1253;71945;-75
2023/02/02 03:36:32;;;;;;;24.10;11.80;;;;;;;2.95;100.00;98682.38;109478;1253;67211;-76
2023/02/02 03:39:00;;;;;;;15.30;12.00;;;;;;;2.95;100.00;98684.71;109434;1254;72639;-75
2023/02/02 03:41:29;;;;;;;22.00;13.40;;;;;;;2.94;100.00;98685.10;109427;1253;58252;-75
2023/02/02 03:43:57;;;;;;;21.90;13.40;;;;;;;2.90;100.00;98690.79;109464;1253;61491;-76
2023/02/02 05:53:29;;;;;;;30.10;19.80;;;;;;;1.69;100.00;98732.52;102763;1288;601074;-73
2023/02/02 05:55:57;;;;;;;37.20;25.00;;;;;;;1.67;100.00;98738.25;104794;1269;63754;-71
2023/02/02 05:58:26;;;;;;;34.70;23.10;;;;;;;1.69;100.00;98739.58;104835;1269;60583;-71
2023/02/02 06:00:55;;;;;;;33.50;23.60;;;;;;;1.74;100.00;98745.83;104602;1270;73152;-72
2023/02/02 06:03:24;;;;;;;35.20;20.90;;;;;;;1.82;100.00;98750.20;104627;1269;70262;-74
2023/02/02 06:05:52;;;;;;;28.80;20.10;;;;;;;1.89;100.00;98753.57;104010;1274;605091;-70
2023/02/02 06:08:20;;;;;;;25.80;18.50;;;;;;;2.00;100.00;98752.25;104696;1271;61358;-69
2023/02/02 06:10:48;;;;;;;28.80;17.10;;;;;;;2.11;100.00;98754.06;104712;1268;61631;-70
2023/02/02 06:13:18;;;;;;;29.80;17.50;;;;;;;2.23;100.00;98756.36;104672;1269;72276;-71
2023/02/02 06:15:49;;;;;;;28.30;18.20;;;;;;;2.31;100.00;98758.20;104648;1272;68792;-74
2023/02/02 06:18:17;;;;;;;23.70;18.10;;;;;;;2.38;100.00;98759.92;104585;1267;72669;-73
2023/02/02 06:20:46;;;;;;;23.90;17.30;;;;;;;2.43;100.00;98764.90;105248;1260;59666;-73
2023/02/02 06:23:14;;;;;;;22.90;17.90;;;;;;;2.46;100.00;98763.19;105496;1260;61427;-71
2023/02/02 06:25:43;;;;;;;28.30;19.20;;;;;;;2.49;100.00;98770.80;105422;1256;71835;-74
2023/02/02 06:28:11;;;;;;;35.80;22.60;;;;;;;2.51;100.00;98773.14;105833;1256;68113;-71
2023/02/02 06:30:39;;;;;;;27.50;19.90;;;;;;;2.52;100.00;98775.95;105793;1259;72988;-72
2023/02/02 06:33:10;;;;;;;37.50;21.90;;;;;;;2.55;100.00;98778.73;105454;1259;59654;-71
2023/02/02 06:35:39;;;;;;;27.80;18.10;;;;;;;2.55;100.00;98781.50;105480;1257;61934;-69
2023/02/02 06:38:07;;;;;;;26.10;18.20;;;;;;;2.56;100.00;98781.53;105458;1256;74415;-71
2023/02/02 06:40:35;;;;;;;29.80;19.10;;;;;;;2.57;100.00;98784.67;105356;1258;68045;-70
2023/02/02 06:43:03;;;;;;;44.10;28.90;;;;;;;2.55;100.00;98781.83;105340;1259;73539;-68
2023/02/02 06:45:31;;;;;;;32.20;23.50;;;;;;;2.53;100.00;98784.42;105481;1259;60755;-68
2023/02/02 06:48:02;;;;;;;31.30;20.60;;;;;;;2.54;100.00;98790.01;105553;1256;61525;-68
2023/02/02 06:50:31;;;;;;;25.70;19.00;;;;;;;2.56;100.00;98788.27;105379;1257;73620;-71
2023/02/02 06:52:59;;;;;;;30.30;19.40;;;;;;;2.59;100.00;98787.84;105595;1260;67979;-70
2023/02/02 06:55:27;;;;;;;26.40;19.20;;;;;;;2.61;100.00;98791.56;105317;1261;73399;-70
2023/02/02 06:57:57;;;;;;;30.60;21.30;;;;;;;2.61;100.00;98790.76;105298;1259;59637;-71
2023/02/02 07:00:26;;;;;;;29.80;18.40;;;;;;;2.64;100.00;98790.96;105456;1260;60126;-70
2023/02/02 07:02:54;;;;;;;25.30;20.40;;;;;;;2.66;100.00;98786.82;105419;1260;72333;-72
2023/02/02 07:05:23;;;;;;;27.50;18.20;;;;;;;2.70;100.00;98786.70;105404;1256;68069;-69
2023/02/02 07:07:52;;;;;;;29.40;19.00;;;;;;;2.73;100.00;98787.04;105304;1261;72724;-69
2023/02/02 07:10:20;;;;;;;19.60;17.50;;;;;;;2.76;100.00;98789.08;105365;1256;62442;-69
2023/02/02 07:13:08;;;;;;;34.90;18.90;;;;;;;2.78;100.00;98793.63;105408;1256;61102;-72
2023/02/02 07:15:40;;;;;;;27.50;18.70;;;;;;;2.80;100.00;98797.23;105312;1260;72588;-70
2023/02/02 07:18:08;;;;;;;27.00;19.00;;;;;;;2.82;100.00;98795.88;105497;1260;68737;-69
2023/02/02 07:20:38;;;;;;;23.70;17.10;;;;;;;2.85;100.00;98799.27;105198;1256;73344;-69
2023/02/02 07:23:07;;;;;;;27.20;18.80;;;;;;;2.89;100.00;98799.25;105259;1256;59722;-71
2023/02/02 07:25:35;;;;;;;28.60;19.20;;;;;;;2.89;100.00;98799.66;105390;1257;61243;-72
2023/02/02 07:28:03;;;;;;;21.50;18.30;;;;;;;2.87;100.00;98802.11;105437;1260;74499;-72
2023/02/02 07:30:32;;;;;;;28.30;19.90;;;;;;;2.86;100.00;98798.65;105424;1258;68441;-72
2023/02/02 07:33:00;;;;;;;20.80;15.90;;;;;;;2.91;100.00;98796.17;105655;1261;74162;-70
2023/02/02 07:35:28;;;;;;;29.00;18.50;;;;;;;2.97;100.00;98796.26;105766;1260;59654;-72
2023/02/02 07:37:57;;;;;;;19.90;16.30;;;;;;;3.04;100.00;98797.09;105757;1260;59526;-73
2023/02/02 07:40:25;;;;;;;22.80;16.40;;;;;;;3.07;100.00;98795.36;105762;1257;71750;-71
2023/02/02 07:42:53;;;;;;;26.10;19.40;;;;;;;3.09;100.00;98797.18;105773;1256;69761;-72
2023/02/02 07:45:22;;;;;;;28.80;16.10;;;;;;;3.07;100.00;98794.83;105458;1256;72490;-71
2023/02/02 07:47:58;;;;;;;29.40;21.30;;;;;;;3.08;100.00;98800.05;105200;1262;61606;-70
2023/02/02 07:50:27;;;;;;;31.30;18.00;;;;;;;3.09;100.00;98800.93;105412;1257;61022;-68
2023/02/02 07:52:58;;;;;;;30.40;18.00;;;;;;;3.13;100.00;98806.95;105270;1260;73927;-70
2023/02/02 07:55:26;;;;;;;25.20;16.00;;;;;;;3.19;100.00;98806.36;105009;1257;69987;-71
2023/02/02 07:57:57;;;;;;;25.00;17.90;;;;;;;3.22;100.00;98806.29;105730;1256;72656;-71
2023/02/02 08:00:26;;;;;;;26.40;17.90;;;;;;;3.24;100.00;98813.14;105718;1260;59865;-71
2023/02/02 08:02:54;;;;;;;28.90;17.70;;;;;;;3.25;100.00;98812.14;105588;1256;59854;-72
2023/02/02 08:05:23;;;;;;;22.10;15.60;;;;;;;3.26;100.00;98812.83;105296;1257;73544;-75
2023/02/02 08:07:52;;;;;;;26.60;18.60;;;;;;;3.26;100.00;98814.05;105674;1256;69373;-70
2023/02/02 08:10:21;;;;;;;21.50;16.10;;;;;;;3.24;100.00;98816.29;105442;1256;73611;-74
2023/02/02 08:12:50;;;;;;;23.00;16.80;;;;;;;3.24;100.00;98816.41;105694;1257;59649;-72
2023/02/02 08:15:18;;;;;;;26.40;17.50;;;;;;;3.29;100.00;98817.70;105297;1261;59734;-73
2023/02/02 08:17:48;;;;;;;25.60;16.20;;;;;;;3.32;100.00;98825.49;105351;1259;72783;-73
2023/02/02 08:20:17;;;;;;;22.70;16.30;;;;;;;3.33;99.96;98827.45;105280;1257;67585;-72
2023/02/02 08:22:46;;;;;;;34.70;19.90;;;;;;;3.32;99.48;98828.69;105857;1256;73605;-74
2023/02/02 08:25:15;;;;;;;24.70;16.40;;;;;;;3.32;99.41;98827.45;105509;1256;60972;-72
2023/02/02 08:27:43;;;;;;;25.20;16.70;;;;;;;3.35;99.38;98824.72;105359;1256;59780;-73
2023/02/02 08:30:12;;;;;;;24.40;15.30;;;;;;;3.35;99.06;98825.74;105402;1257;73753;-73
2023/02/02 08:32:41;;;;;;;20.70;17.10;;;;;;;3.36;98.71;98824.11;105309;1256;69449;-72
2023/02/02 08:35:09;;;;;;;22.10;17.90;;;;;;;3.34;98.65;98829.11;105446;1256;72741;-71
2023/02/02 08:37:38;;;;;;;29.90;16.70;;;;;;;3.40;98.84;98824.05;105423;1260;60664;-71
2023/02/02 08:40:07;;;;;;;25.20;17.40;;;;;;;3.46;98.80;98822.33;105391;1256;61219;-71
2023/02/02 08:42:35;;;;;;;27.90;16.80;;;;;;;3.50;98.53;98823.98;105777;1260;73912;-70
2023/02/02 08:45:04;;;;;;;22.10;18.50;;;;;;;3.53;98.43;98827.39;105472;1260;70224;-73
2023/02/02 08:47:53;;;;;;;22.40;16.50;;;;;;;3.56;98.27;98826.61;105421;1260;73574;-72
2023/02/02 08:50:38;;;;;;;22.90;15.80;;;;;;;3.56;97.74;98828.69;105550;1256;61998;-73
2023/02/02 08:53:07;;;;;;;27.00;18.50;;;;;;;3.57;97.56;98828.72;105460;1256;60649;-71
2023/02/02 08:55:36;;;;;;;28.30;16.60;;;;;;;3.61;97.56;98831.48;105467;1257;74754;-72
2023/02/02 08:58:06;;;;;;;29.40;19.00;;;;;;;3.68;97.20;98822.56;105478;1256;66941;-71
2023/02/02 09:00:34;;;;;;;27.80;18.40;;;;;;;3.71;96.90;98820.95;105448;1256;72759;-71
2023/02/02 09:03:02;;;;;;;26.90;19.00;;;;;;;3.73;96.63;98824.09;105774;1256;60086;-70
2023/02/02 09:05:31;;;;;;;28.30;18.60;;;;;;;3.76;96.13;98825.22;105342;1256;62532;-74
2023/02/02 09:08:00;;;;;;;28.10;18.90;;;;;;;3.77;95.61;98826.48;105709;1262;72809;-69
2023/02/02 09:10:30;;;;;;;27.40;17.30;;;;;;;3.75;95.06;98820.15;105430;1256;68890;-73
2023/02/02 09:12:59;;;;;;;25.00;17.70;;;;;;;3.81;95.44;98821.42;105399;1256;73865;-70
2023/02/02 09:15:27;;;;;;;21.10;15.50;;;;;;;3.91;95.36;98816.23;105174;1260;61422;-73
2023/02/02 09:17:56;;;;;;;21.30;16.50;;;;;;;3.96;94.57;98819.35;105812;1256;59948;-74
2023/02/02 09:20:24;;;;;;;22.80;18.80;;;;;;;3.98;94.14;98819.88;105663;1256;72864;-72
2023/02/02 09:22:54;;;;;;;30.00;17.40;;;;;;;3.99;93.67;98816.92;105556;1256;69457;-72
2023/02/02 09:25:24;;;;;;;22.90;17.60;;;;;;;4.02;93.48;98821.56;105593;1256;71647;-73
2023/02/02 09:27:52;;;;;;;26.30;18.70;;;;;;;4.02;93.09;98821.11;105497;1256;61781;-72
2023/02/02 09:30:21;;;;;;;20.90;17.00;;;;;;;4.04;93.07;98819.76;105679;1256;60492;-72
2023/02/02 09:32:49;;;;;;;22.90;15.70;;;;;;;4.10;92.96;98819.58;105418;1261;73601;-69
2023/02/02 09:35:18;;;;;;;25.30;16.30;;;;;;;4.18;92.72;98818.51;105484;1261;68808;-69
2023/02/02 09:37:48;;;;;;;22.70;15.90;;;;;;;4.25;92.15;98818.71;105404;1256;73385;-68
2023/02/02 09:40:20;;;;;;;21.20;17.20;;;;;;;4.29;91.72;98812.71;105333;1261;59782;-71
2023/02/02 09:43:22;;;;;;;;;;;;;;;;;;;;;
2023/02/02 09:46:35;;;;;;;21.20;15.90;;;;;;;4.33;90.92;98817.92;105696;1256;75613;-74
2023/02/02 09:49:27;;;;;;;21.90;14.70;;;;;;;4.34;90.47;98819.02;105527;1262;70106;-76
2023/02/02 09:52:01;;;;;;;19.00;13.10;;;;;;;4.31;89.94;98820.95;105746;1257;71752;-74
2023/02/02 09:54:44;;;;;;;20.10;15.70;;;;;;;4.31;89.84;98821.21;105614;1257;60355;-68
2023/02/02 09:57:19;;;;;;;22.50;13.90;;;;;;;4.34;89.64;98821.97;105292;1256;61981;-73
2023/02/02 09:59:48;;;;;;;21.40;14.90;;;;;;;4.37;89.16;98819.70;105575;1256;73362;-71
2023/02/02 10:02:22;;;;;;;20.30;15.20;;;;;;;4.37;88.84;98818.38;105780;1256;68083;-74
2023/02/02 10:04:54;;;;;;;20.50;15.60;;;;;;;4.35;88.66;98814.70;106539;1256;74725;-73
2023/02/02 10:07:37;;;;;;;20.80;15.10;;;;;;;4.32;88.58;98812.94;107955;1256;60475;-71
2023/02/02 10:10:25;;;;;;;17.10;13.70;;;;;;;4.27;88.45;98814.63;106254;1257;60537;-73
2023/02/02 10:13:15;;;;;;;18.50;15.80;;;;;;;4.24;88.51;98818.27;105753;1256;73325;-72
2023/02/02 10:16:20;;;;;;;20.20;14.90;;;;;;;4.24;88.64;98817.01;105360;1257;69270;-72
2023/02/02 10:18:56;;;;;;;19.00;15.20;;;;;;;4.22;88.47;98818.02;105712;1261;74201;-70
2023/02/02 10:21:44;;;;;;;17.40;14.80;;;;;;;4.21;88.36;98819.69;105338;1256;61226;-71
2023/02/02 10:24:18;;;;;;;20.80;15.90;;;;;;;4.20;88.69;98820.52;105307;1256;61576;-71
2023/02/02 10:26:49;;;;;;;23.90;17.10;;;;;;;4.21;88.82;98821.09;105322;1257;73617;-70
2023/02/02 10:29:20;;;;;;;19.80;14.90;;;;;;;4.22;88.77;98827.33;105309;1262;69447;-69
2023/02/02 10:31:55;;;;;;;19.90;15.70;;;;;;;4.19;88.70;98830.87;105347;1261;72979;-73
2023/02/02 10:34:25;;;;;;;25.80;16.00;;;;;;;4.15;88.93;98828.59;105433;1257;63037;-71
2023/02/02 10:37:15;;;;;;;17.00;14.60;;;;;;;4.13;89.00;98828.98;105800;1258;60552;-70
2023/02/02 10:39:55;;;;;;;18.10;15.10;;;;;;;4.13;89.18;98827.27;105781;1260;75390;-73
2023/02/02 10:46:02;;;;;;;14.90;12.20;;;;;;;3.96;89.28;98828.96;105057;1260;72884;-70
2023/02/02 10:48:34;;;;;;;17.60;13.10;;;;;;;3.91;89.53;98826.10;106071;1260;61087;-73
2023/02/02 10:51:10;;;;;;;13.80;12.40;;;;;;;3.84;89.56;98828.73;105948;1258;60406;-71
2023/02/02 10:53:38;;;;;;;18.00;13.50;;;;;;;3.83;90.00;98826.15;105611;1262;74649;-74
2023/02/02 10:56:10;;;;;;;17.10;12.70;;;;;;;3.86;90.15;98829.58;105380;1257;70292;-76
2023/02/02 10:58:51;;;;;;;15.90;12.30;;;;;;;3.89;90.21;98823.23;106174;1257;72431;-80
2023/02/02 11:01:21;;;;;;;14.30;12.80;;;;;;;3.95;90.36;98819.65;106783;1257;60507;-80
2023/02/02 11:06:48;;;;;;;15.30;13.80;;;;;;;4.01;90.17;98818.58;106490;1257;61107;-83
2023/02/02 11:06:48;;;;;;;14.60;11.40;;;;;;;4.04;90.16;98823.27;106376;1257;73734;-76
2023/02/02 11:09:27;;;;;;;15.90;14.00;;;;;;;4.09;89.74;98822.33;105939;1257;69675;-73
2023/02/02 11:12:30;;;;;;;18.30;14.50;;;;;;;4.10;89.50;98822.45;105767;1257;73264;-75
2023/02/02 11:15:07;;;;;;;16.00;13.20;;;;;;;4.12;89.52;98824.75;105824;1257;61274;-76
2023/02/02 11:17:36;;;;;;;19.90;15.60;;;;;;;4.13;89.08;98824.48;105865;1256;60506;-76
2023/02/02 11:20:22;;;;;;;14.60;13.00;;;;;;;4.18;89.06;98829.36;105952;1259;74519;-74
2023/02/02 11:22:59;;;;;;;15.30;13.70;;;;;;;4.27;88.53;98826.42;106088;1256;69435;-70
2023/02/02 11:25:35;;;;;;;14.10;11.90;;;;;;;4.36;88.61;98822.66;105669;1257;73032;-76
2023/02/02 11:28:17;;;;;;;15.90;13.20;;;;;;;4.46;88.01;98827.94;106594;1259;60463;-75
2023/02/02 11:30:48;;;;;;;13.80;12.30;;;;;;;4.48;87.37;98828.77;106299;1256;60944;-77
2023/02/02 11:33:27;;;;;;;15.60;12.30;;;;;;;4.48;87.15;98826.06;106700;1260;73584;-81
2023/02/02 11:36:00;;;;;;;16.80;13.50;;;;;;;4.49;86.87;98823.96;106420;1260;68437;-73
2023/02/02 11:38:29;;;;;;;15.90;13.10;;;;;;;4.52;86.66;98830.20;105863;1259;73488;-74
2023/02/02 11:41:02;;;;;;;13.30;11.90;;;;;;;4.54;85.80;98833.78;105477;1257;61091;-79
2023/02/02 11:43:51;;;;;;;13.70;12.20;;;;;;;4.53;85.22;98833.75;105632;1256;61889;-79
2023/02/02 11:46:27;;;;;;;22.50;14.20;;;;;;;4.52;85.13;98831.11;105866;1257;74838;-81
2023/02/02 11:49:04;;;;;;;18.10;13.60;;;;;;;4.52;85.00;98829.72;106033;1257;69784;-76
2023/02/02 11:51:33;;;;;;;15.50;12.60;;;;;;;4.52;84.89;98829.79;105749;1262;74638;-76
2023/02/02 11:54:06;;;;;;;15.60;12.00;;;;;;;4.53;84.72;98828.20;106358;1255;60597;-74
2023/02/02 11:56:35;;;;;;;16.40;12.50;;;;;;;4.53;84.62;98827.62;106513;1257;61136;-81
2023/02/02 11:59:04;;;;;;;17.30;13.20;;;;;;;4.54;84.66;98829.24;106315;1257;73666;-69
2023/02/02 12:01:40;;;;;;;17.00;13.10;;;;;;;4.54;84.36;98824.08;105430;1257;69784;-72
2023/02/02 12:04:22;;;;;;;13.90;12.20;;;;;;;4.52;84.31;98822.86;105802;1257;74212;-70
2023/02/02 12:06:50;;;;;;;15.60;13.70;;;;;;;4.51;84.25;98823.55;105525;1257;60537;-69
2023/02/02 12:09:22;;;;;;;17.70;14.70;;;;;;;4.52;84.43;98830.79;105664;1257;60964;-72
2023/02/02 12:11:53;;;;;;;22.60;14.00;;;;;;;4.55;84.43;98829.48;105746;1257;72814;-69
2023/02/02 12:14:43;;;;;;;15.70;14.00;;;;;;;4.56;84.05;98831.09;106358;1257;68683;-67
2023/02/02 12:17:21;;;;;;;17.70;13.00;;;;;;;4.55;84.00;98833.43;105961;1259;73787;-69
2023/02/02 12:19:52;;;;;;;15.10;13.00;;;;;;;4.54;83.76;98831.87;105921;1257;60430;-70
2023/02/02 12:22:25;;;;;;;16.60;13.70;;;;;;;4.52;83.90;98829.03;106355;1257;60476;-83
2023/02/02 12:25:26;;;;;;;17.60;13.70;;;;;;;4.52;83.90;98832.30;106752;1257;73513;-89
2023/02/02 12:28:05;;;;;;;14.60;12.40;;;;;;;4.51;84.01;98830.36;106966;1257;67090;-86
2023/02/02 12:30:34;;;;;;;13.60;12.10;;;;;;;4.57;84.07;98837.00;106931;1261;73473;-86
2023/02/02 12:33:36;;;;;;;15.10;12.20;;;;;;;4.64;83.75;98836.08;107072;1257;60374;-87
2023/02/02 12:36:31;;;;;;;15.10;11.30;;;;;;;4.69;83.52;98836.08;107182;1257;60472;-81
2023/02/02 12:39:39;;;;;;;14.80;11.50;;;;;;;4.72;83.22;98841.86;107193;1255;73678;-80
2023/02/02 12:42:23;;;;;;;18.80;12.40;;;;;;;4.72;83.04;98842.75;105903;1257;67373;-74
2023/02/02 12:44:55;;;;;;;15.30;12.30;;;;;;;4.70;82.49;98847.29;105950;1261;73705;-72
2023/02/02 12:47:32;;;;;;;16.60;13.40;;;;;;;4.64;82.27;98847.21;106269;1259;60888;-78
2023/02/02 12:50:04;;;;;;;15.20;12.60;;;;;;;4.60;82.23;98844.30;105812;1257;61513;-72
2023/02/02 12:52:39;;;;;;;20.40;14.70;;;;;;;4.60;82.33;98842.06;106317;1257;75744;-73
2023/02/02 12:55:33;;;;;;;18.20;13.00;;;;;;;4.63;82.45;98841.82;106528;1256;69576;-73
2023/02/02 12:58:08;;;;;;;;;;;;;;;4.67;82.28;98846.74;106004;1257;74534;-72
2023/02/02 13:00:45;;;;;;;14.30;11.60;;;;;;;4.66;82.15;98848.11;105673;1262;60563;-70
2023/02/02 13:03:20;;;;;;;19.30;13.80;;;;;;;4.61;82.08;98850.45;105841;1257;61936;-71
2023/02/02 13:05:53;;;;;;;21.20;13.20;;;;;;;4.57;82.32;98849.91;105841;1259;74689;-71
2023/02/02 13:08:22;;;;;;;;;;;;;;;4.57;82.49;98851.95;105824;1257;69845;-70
2023/02/02 13:10:56;;;;;;;26.30;17.40;;;;;;;4.52;82.10;98844.70;105845;1257;74230;-73
2023/02/02 13:13:32;;;;;;;18.10;14.50;;;;;;;4.43;82.44;98847.15;104361;1262;1004969;-74
2023/02/02 13:16:05;;;;;;;14.40;12.50;;;;;;;4.42;82.75;98849.88;105754;1256;60527;-77
2023/02/02 13:18:39;;;;;;;16.90;12.60;;;;;;;4.42;82.82;98851.42;106264;1261;72345;-79
2023/02/02 13:21:14;;;;;;;17.70;13.30;;;;;;;4.38;82.93;98859.27;106525;1259;68140;-77
2023/02/02 13:23:50;;;;;;;14.50;13.00;;;;;;;4.36;82.95;98856.04;106357;1257;72669;-79
2023/02/02 13:26:26;;;;;;;18.20;15.20;;;;;;;4.35;83.09;98857.20;106155;1257;60384;-76
2023/02/02 13:29:26;;;;;;;17.10;14.00;;;;;;;4.33;83.10;98860.98;106277;1259;61422;-74
2023/02/02 13:32:16;;;;;;;17.70;13.80;;;;;;;4.27;83.45;98855.65;106545;1259;74507;-82
2023/02/02 13:34:54;;;;;;;18.70;14.00;;;;;;;4.22;83.63;98859.16;105807;1257;69052;-72
2023/02/02 13:37:40;;;;;;;16.80;14.20;;;;;;;4.25;83.80;98857.63;106325;1257;73181;-80
2023/02/02 13:40:31;;;;;;;17.20;14.20;;;;;;;4.26;83.81;98859.89;105953;1258;60457;-73
2023/02/02 13:43:29;;;;;;;16.20;13.30;;;;;;;4.27;83.89;98859.86;105826;1257;60862;-74
2023/02/02 13:46:21;;;;;;;20.00;15.30;;;;;;;4.25;83.69;98860.40;105882;1257;73084;-72
2023/02/02 13:49:06;;;;;;;19.80;14.10;;;;;;;4.20;83.94;98860.10;106119;1257;68646;-78
2023/02/02 13:51:49;;;;;;;19.00;16.80;;;;;;;4.18;84.14;98859.96;106402;1259;73201;-74
2023/02/02 13:54:49;;;;;;;16.80;13.30;;;;;;;4.19;84.36;98861.96;105789;1255;60318;-74
2023/02/02 13:57:23;;;;;;;21.20;13.30;;;;;;;4.22;84.55;98863.89;105938;1259;60427;-72
2023/02/02 13:59:52;;;;;;;15.70;12.30;;;;;;;4.22;84.52;98868.95;107144;1259;73054;-86
2023/02/02 14:02:34;;;;;;;16.00;13.60;;;;;;;4.17;84.57;98868.66;106323;1257;68907;-70
2023/02/02 14:05:03;;;;;;;12.50;11.10;;;;;;;4.11;84.86;98867.98;105872;1267;74486;-70
2023/02/02 14:07:44;;;;;;;11.60;9.90;;;;;;;4.05;85.19;98872.57;106272;1257;61101;-75